Terminal Aerodrome Forecast
Issued by NWS

Home | Current Version | Previous Version | Text Only | Print | Product List | Glossary On
Versions: 1 2 3 4 5 6 7 8 9 10 11 12 13 14 15 16 17 18 19 20 21 22 23 24 25 26
000
FTUS43 KILX 262300
TAFCMI
TAF
KCMI 262326Z 2700/2724 33012KT P6SM SCT050 BKN200
     FM270600 34008KT P6SM SCT025 BKN100
      TEMPO 2711/2715 BKN025
     FM271600 36012G20KT P6SM SCT050=

USA.gov is the U.S. government's official web portal to all federal, state and local government web resources and services.